Suggestion Search

Define a bounding box (note: it will not wrap North/South over poles). If the range is zero degrees, a bounding box will not be used to constrain the search.

Centered On °   °

Match text in the suggestion title, science rationale or special notes. The search is case-insensitive. % is a wildcard (_ for a single character).

Find
Search

You may select science themes to limit query, otherwise suggestions from all themes will be returned.

Multiple values may be selected (shift + click).

  Rows per page
661 records found, displaying 101 to 200.[First/Prev] 1, 2, 3, 4, 5, 6, 7 [Next/Last]
ID Suggestion Title Latitude Longitude Repeat Created Observation ID
169232 Search for abandoned boulders on strath terraces in S Capri Chasma -9.146 317.246 1 2018-12-20
169722 Constrain debris flow versus fluvial processes near MOC R0901854 11.991 298.422 1 2019-01-05
171692 Unusual erosional texture deposit high on Claritas Fossae -33.213 258.315 1 2019-02-22 ESP_060150_1465
171700 Enigmatic lobate deposit in Chryse Planitia 19.882 326.050 1 2019-02-23
171720 Delta or fan at erosion-to-deposition transition on crater floor 24.154 182.841 1 2019-02-26 ESP_062658_2045
171722 Channel incision exposing layered deposits in Sagan Crater 10.599 329.790 1 2019-02-26 ESP_066886_1905
172780 Possible exhumed fluvial channels similar to those in Irwin et al JGR 2018 -12.609 154.660 1 2019-03-14
172816 Candidate small synsedimentary craters in fan deposit SE of Ostrov -27.753 332.723 1 2019-03-15
172992 Test inner-channel hypothesis in long valley system 29.449 349.045 1 2019-03-23
174202 Test inverted channel hypothesis for sinuous ridge in G11_022390_1615_XN_18 -18.205 81.938 1 2019-05-13
174418 Wind-eroded exposure of Ma adim Vallis floor deposit -17.671 177.768 1 2019-05-22 ESP_064056_1620
174534 Breach in central pit of crater and possible layer exposure in nearby fan -28.337 169.094 1 2019-05-28 ESP_068172_1515
177646 Layers and inverted channels exposed in distal ends of two alluvial fans -18.941 120.771 1 2019-11-03 ESP_065390_1610
178156 Possible inverted channels on very old fan feature -20.015 327.156 1 2019-11-23
179334 Crater with possible dune strata 6.578 25.326 1 2020-01-01 ESP_069101_1865
180090 Terrain sample northwest of Sytinskaya Crater 43.160 305.484 1 2020-02-27 ESP_067520_2235
180092 Possible dissection of alluvial fan by flood channel in Shalbatana Vallis 1.321 315.777 1 2020-02-29 ESP_067665_1815
182030 Possible alluvial fan deposit and small alcoves -27.330 133.256 1 2020-05-03
182032 Possible lake deposit outliers downstream of fan -30.072 199.905 1 2020-05-03
182192 Floor of Jones Crater -19.119 340.371 1 2020-05-06 ESP_070171_1605
182244 Channels and features near deepest point of Holden Crater -26.456 325.848 1 2020-05-07 ESP_069011_1535
182536 Unusually steep fan -25.840 20.894 1 2020-05-15 ESP_066106_1540
182538 Deposit on Baum Crater floor -24.839 28.307 1 2020-05-15 ESP_067293_1550
182586 Light-toned layers near fan terminus in Salkhad Crater -29.772 83.534 1 2020-05-16 ESP_069165_1500
182628 Enigmatic flat deposits in moat of Asau crater -3.647 154.630 1 2020-05-17
182632 Margins of flat-topped deposits connected by sinuous ridges in Perrotin -2.360 282.180 1 2020-05-17
182634 Possible synsedimentary impact craters in layered deposits -7.548 303.385 1 2020-05-17
182636 Junction between fans and deposits high on plateau -7.791 303.385 1 2020-05-17 ESP_066610_1720
182678 Crater floor -2.864 307.898 1 2020-05-18
182774 Floor of Du Martheray Crater 5.326 94.015 1 2020-05-20 ESP_067462_1855
182776 Rim of Du Martheray Crater 6.037 93.232 1 2020-05-20 ESP_067053_1860
182778 Alluvial fan or debris flow deposit in remarkably young crater 6.760 129.343 1 2020-05-20
182780 Deposits and embedded crater 2.624 129.312 1 2020-05-20 ESP_065970_1825
182794 Nicholson Crater floor 0.196 196.032 1 2020-05-20 ESP_069662_1800
182882 Constrain relationship between sinuous ridges channels and lake deposits 0.442 296.799 1 2020-05-21
182946 Test relationship between ridges and candidate lake deposits 8.240 310.453 1 2020-05-22
182948 Test hypothesis that lake deposits embay ejecta of 10 km diameter crater 8.326 310.836 1 2020-05-22
183020 Layers and candidate synsedimentary impact craters in crater with deltas 27.948 11.404 1 2020-05-23
183028 Fan-shaped deposit in southwest Sharonov Crater 26.574 301.017 1 2020-05-24 ESP_065370_2070
183030 Possible bajada in southwest Sharonov Crater 26.673 300.841 1 2020-05-24 ESP_066201_2070
183032 Alluvial fan in crater in Kasei Valles 24.431 304.361 1 2020-05-24 ESP_067916_2045
183038 Relationship between ridges channels and candidate lake deposits in Wahoo 23.472 325.999 1 2020-05-24
183040 Sinuous feature connecting two flat-topped deposits in Wahoo 22.987 326.196 1 2020-05-24
183042 Layered materials in low albedo region near deepest point of crater 26.030 347.906 1 2020-05-24
183044 More layered materials in low albedo region near deepest point of crater 25.994 348.008 1 2020-05-24
183046 Outcrop on east side of candidate delta scarp fronted deposit 23.423 358.624 1 2020-05-24 ESP_067030_2035
183048 Crater floor deposits 23.933 358.835 1 2020-05-24 ESP_065790_2040
183130 Erosional windows into deposit at mouth of branching canyon -31.722 2.512 1 2020-05-29
183162 Crosscutting relationships between gully deposits from different directions -37.823 96.907 1 2020-05-29 ESP_066842_1420
183168 Layered material inside impact crater -37.416 100.260 1 2020-05-29 ESP_067937_1425
183236 Layered materials at deepest point of crater fed by channels -35.941 143.154 1 2020-05-29
183256 Test delta hypothesis for scarp fronted deposit -33.229 162.898 1 2020-05-30
183258 Constrain duration of paleolake by confirming synsedimentary impact crater -33.132 163.168 1 2020-05-30
183676 Flat deposits and sinuous ridges downstream of alcoves on outer crater rim 8.221 311.386 1 2020-06-08
184537 Crater floor deposits 23.933 358.835 1 2020-05-24 ESP_065236_2040
184567 Floor of Jones Crater -19.119 340.371 1 2020-05-06 ESP_065316_1605
189929 Possible relict near-surface ice -22.743 66.742 1 2016-07-06 ESP_067793_1570
195494 Test at apex of late-stage fan debris flows or fluvial -13.711 318.586 1 2021-07-25
195622 Sample landing and traverse hazards at possible Mars helicopter landing sit -27.824 73.548 1 2021-07-31
195810 Layering from figure 6 of Irwin et al JGR 2005 1.753 89.579 1 2021-08-09
196184 Test candidate relict ice material close to Holden crater -28.159 325.536 1 2021-08-19
196704 Terrain sample -20.979 209.213 1 2021-09-21 ESP_072325_1590
46150 Young esker-like ridges in Tempe Terra 38.441 287.463 1 2010-03-19 ESP_018545_2190
46928 Sinuous ridges near Juventae Chasma -4.322 296.454 1 2010-04-05 ESP_065766_1755
47458 Unusual multiply-cratered cones in Acidalia 41.599 354.683 1 2010-04-11 ESP_050981_2220
49590 Sinuous ridges in crater near Reull Vallis -38.471 113.016 1 2010-05-07 ESP_020121_1410
50182 Possible future Mars landing site with inverted river meanders -5.714 153.495 1 2010-05-19 ESP_022084_1740
50184 Inverted river meanders and possible MSL rover landing site -5.829 153.734 1 2010-05-19 ESP_022862_1740
50451 Young esker-like ridges in Tempe Terra 38.441 287.463 1 2010-03-19 ESP_017767_2190
50476 Fans in 10-kilometer diameter crater north of Mojave Crater 10.790 325.190 1 2010-05-28 ESP_026983_1910
58648 Possible future Mars landing site with inverted river meanders -5.714 153.495 1 2011-03-17 ESP_022361_1740
59839 Possible future Mars landing site with inverted river meanders -5.714 153.495 1 2010-05-19 ESP_021728_1740
67484 Light-toned layers next to fan in depression north of Ganges Chasma -3.351 307.723 1 2011-12-19 ESP_039999_1765
67486 Sinuous ridge on Orson Welles Crater bajada 0.513 313.959 1 2011-12-19 ESP_032469_1805
72646 Search for active glacial flow on Mars -37.697 95.570 1 2012-04-16 ESP_030341_1420
73340 Fans in 10-kilometer diameter crater north of Mojave Crater 10.790 325.190 1 2012-04-30 ESP_027682_1910
75424 Sinuous ridge on crater wall in Aeolis region -3.694 153.476 1 2012-07-02 ESP_035112_1765
99376 Sinuous channels near Zephyria Planum -5.998 154.000 1 2014-04-27 ESP_071048_1740
110178 Distal fan in crater south of Ostrov Crater -27.883 332.619 1 2015-03-02 ESP_055505_1520
110356 Fine-scale channels in Aeolis region -6.195 152.477 1 2015-03-08 ESP_048813_1735
110628 Fan-shaped features in Gunjur Crater -0.040 146.551 1 2015-03-26 ESP_045952_1800
122616 Chaotic terrain in Masursky Crater 11.167 327.553 1 2016-02-04 ESP_045286_1915
150880 Landforms on floor of crater -29.053 84.102 1 2017-07-30 ESP_065497_1505
150894 Possible inverted channel within valley -11.749 185.890 1 2017-07-30 ESP_052227_1680
158436 Channels on fan surface northeast of Hellas Planitia -28.507 84.175 1 2013-04-17 ESP_032583_1510
159950 Intracrater basin southwest of Capen Crater Rocks and Regolith 5.348 13.155 1 2012-08-20 ESP_028577_1855
163560 Channels -26.907 73.643 1 2018-08-09 ESP_066579_1530
163562 Possible outflow-channel deposits at break-in-slope adjacent to crater -33.671 347.890 1 2018-08-09 ESP_060028_1460
172998 Candidate equatorial ice-rich material -5.974 10.934 1 2019-03-23 ESP_060304_1740
175054 Possible delta-like landforms 0.750 125.309 1 2019-07-10 ESP_062502_1810
175490 Well-preserved polygons -10.251 183.677 1 2019-08-05 ESP_065269_1695
175542 Possible deltas in crater in Amazonis Planitia 18.270 190.422 1 2019-08-05 ESP_063752_1985
175548 Test inner-channel hypothesis in long valley system 29.449 349.045 1 2019-08-05
178462 Possible inverted channels on very old fan feature -20.015 327.156 1 2019-12-02
181848 Terrain sample northwest of Sytinskaya Crater 43.160 305.484 1 2020-04-22 ESP_068061_2235
193586 Crater with possible dune strata 6.578 25.326 1 2021-04-30 ESP_069510_1865
196808 Sample landing and traverse hazards at possible Mars helicopter landing sit -27.824 73.548 1 2021-09-28
47312 Sinuous channel in Acheron Fossae 35.956 230.057 STEREO 2010-04-10 ESP_019035_2165
48586 Supraglacial sinuous channel in Acheron Fossae 35.956 230.057 STEREO 2010-04-27 ESP_018178_2165
49654 Cratered cones in Cydonia region 40.718 352.568 STEREO 2010-05-09 ESP_025439_2210

Each suggestion is given a unique ID. A stereo suggestion will be made into a pair at the discretion of the Science Theme Lead.

Suggestion title.

Latitudes are expressed in planetocentric degrees.

Longitude are measured in degrees and range east from 0 to 360.

1 for a single suggestion, STEREO for a stereo suggestion, otherwise the number of suggestions in a seasonal or other repeat set.

The date on which the suggestion was created.

If the suggestion has been retired, a link to the observation page.

The username of the suggester.